Flight Track Log - Related Links

Times and Time Zones

All times are in EDT time to prevent confusion due to time zone crossing. See the EJA221 flight status page for this flight to view local times or setup timezone preferences in your user account.

Time Position Orientation Groundspeed Altitude Reporting Facility
EDT Latitude Longitude Course Direction KTS MPH feet Rate Location/Type
Sat 10:13:45 AM 40.8667 -72.6833 310° West 202 232 2,800  Level New York TRACON
Sat 10:14:39 AM 40.9167 -72.6833 360° North 210 242 4,800 632 Climbing New York TRACON
Sat 10:15:39 AM 40.9833 -72.6833 360° North 227 261 4,000 -381 Descending New York TRACON
Sat 10:16:45 AM 41.0167 -72.7500 304° West 189 217 4,000  Level New York TRACON
Sat 10:17:40 AM 41.0333 -72.8000 294° West 185 213 4,000  Level New York TRACON
Sat 10:18:40 AM 41.0667 -72.8667 304° West 189 217 4,000  Level New York TRACON
Sat 10:19:00 AM 41.0301 -72.9277 310° West  Level FlightAware Approximate
Sat 10:19:40 AM 41.0833 -72.9333 288° West 195 224 4,000  Level New York TRACON
Sat 10:20:40 AM 41.1167 -73.0000 304° West 208 239 4,000  Level New York TRACON
Sat 10:21:40 AM 41.1333 -73.0667 288° West 210 242 4,000  Level New York TRACON
Sat 10:22:40 AM 41.1667 -73.1333 304° West 210 242 4,000  Level New York TRACON
Sat 10:23:40 AM 41.1667 -73.2000 270° West 207 238 4,000  Level New York TRACON
Sat 10:24:46 AM 41.1667 -73.2833 270° West 209 241 4,000  Level New York TRACON
Sat 10:25:46 AM 41.1833 -73.3667 285° West 210 242 4,000 -105 Level New York TRACON
Sat 10:26:40 AM 41.1833 -73.4333 270° West 188 216 3,800 -500 Descending New York TRACON
Sat 10:27:46 AM 41.1667 -73.4833 246° West 196 226 3,000 -400 Descending New York TRACON
Sat 10:28:40 AM 41.1167 -73.5167 207° Southwest 196 226 3,000  Level New York TRACON
Sat 10:29:46 AM 41.0667 -73.5667 217° Southwest 199 229 3,000 -300 Level New York TRACON
Sat 10:30:40 AM 41.0167 -73.6000 207° Southwest 197 227 2,400 -550 Descending New York TRACON
Sat 10:31:46 AM 40.9833 -73.6500 229° Southwest 191 220 1,900 -619 Descending New York TRACON
Sat 10:32:46 AM 41.0333 -73.6833 333° Northwest 165 190 1,100 -800 Descending New York TRACON
Sat 10:34:00 AM 41.0667 -73.7000 236° Southwest  Level FlightAware Approximate
Sat 10:41:00 AM 41.0669 -73.7076 236° Southwest  Level Estimated
Sat 10:42:00 AM 41.0667 -73.7000 236° Southwest  Level FlightAware Approximate

Login

Don't have an account? Register now (free) for customized features, flight alerts, and more!